Conceicao do Mato Dentro, Brazil
Current Conditions -  °F | °C
As of 1:00 PM on Friday 19 Dec 2014 (Local Time) from SBLS Reporting Station
Scattered Clouds Scattered Clouds  
Wind Chill: 86°   Ceiling: Unl
Heat Index: 86°   Visibility: 6mi
Dew Point: 61°   Wind: 5mph
Humidity: 43%   Direction: 340°NNW
Pressure: 29.94"   Gusts: NA
Location:  19.04°S, 43.42°W
Report Text: SBLS 191500Z 34004KT 9999 SCT035 30/16 Q1014
Loading
Personal Weather Stations






























Interactive Weather Map New forecast layout! Learn more

10-Day Weather Forecast

Advertisements
Track Severe Weather on mobile